Time;durP1;ratioP1;P1;durP2;ratioP2;P2;SDS_P1;SDS_P2;PMS_P1;PMS_P2;Temp;Humidity;BMP_temperature;BMP_pressure;BME280_temperature;BME280_humidity;BME280_pressure;Samples;Min_cycle;Max_cycle;Signal;HPM_P1;HPM_P2
2021/06/06 09:51:47;;;;;;;25.95;14.80;;;;;;;20.31;57.31;102218.09;2121955;27;20336;-75
2021/06/06 09:52:47;;;;;;;14.73;9.47;;;;;;;20.11;58.04;102217.53;2096322;28;20028;-78
2021/06/06 10:06:32;;;;;;;11.23;7.68;;;;;;;20.70;68.49;102224.47;2124264;27;51841;-81
2021/06/06 10:07:36;;;;;;;10.73;7.63;;;;;;;20.38;58.26;102227.38;2105408;28;20358;-78
2021/06/06 10:08:36;;;;;;;8.77;7.28;;;;;;;20.12;58.76;102224.53;2111058;28;20099;-79
2021/06/06 10:09:38;;;;;;;12.00;7.70;;;;;;;19.99;59.06;102224.47;2105137;28;20021;-78
2021/06/06 10:10:41;;;;;;;9.18;7.75;;;;;;;19.95;59.34;102217.63;2088750;28;20037;-83
2021/06/06 10:12:02;;;;;;;9.80;8.07;;;;;;;19.99;62.20;102213.88;2094764;28;20028;-78
2021/06/06 10:13:26;;;;;;;8.80;7.75;;;;;;;20.20;58.82;102216.13;2096753;28;20470;-85
2021/06/06 10:14:42;;;;;;;8.73;7.32;;;;;;;20.51;58.07;102216.88;2104610;28;20024;-84
2021/06/06 10:15:55;;;;;;;8.73;7.47;;;;;;;21.57;54.72;102223.31;2098895;28;20407;-79
2021/06/06 10:16:58;;;;;;;9.02;7.32;;;;;;;20.91;56.16;102220.59;2091743;28;20025;-74
2021/06/06 10:18:21;;;;;;;9.15;7.35;;;;;;;20.48;57.57;102214.41;2097861;28;20059;-75
2021/06/06 10:20:36;;;;;;;11.10;6.93;;;;;;;20.29;58.01;102218.19;2143312;27;46971;-80
2021/06/06 10:21:36;;;;;;;8.60;7.70;;;;;;;20.29;58.02;102215.53;2119321;28;20035;-81
2021/06/06 10:22:39;;;;;;;9.53;7.40;;;;;;;20.25;58.22;102221.16;2107268;28;20367;-76
2021/06/06 10:24:04;;;;;;;9.05;7.00;;;;;;;20.19;58.76;102220.56;2094544;28;20059;-76
2021/06/06 10:25:10;;;;;;;7.53;6.57;;;;;;;20.22;58.43;102224.81;2120343;27;20322;-78
2021/06/06 10:26:28;;;;;;;8.25;6.35;;;;;;;20.20;58.58;102218.78;2115108;28;20090;-81
2021/06/06 10:27:32;;;;;;;9.07;6.85;;;;;;;20.36;58.17;102220.47;2124980;27;20065;-78
2021/06/06 10:28:54;;;;;;;9.68;8.15;;;;;;;20.29;58.70;102217.38;2122228;28;20026;-80
2021/06/06 10:29:59;;;;;;;7.70;6.90;;;;;;;20.28;59.73;102219.16;2111044;28;20028;-79
2021/06/06 10:31:14;;;;;;;7.90;6.90;;;;;;;20.25;58.71;102227.28;2097901;28;20025;-79
2021/06/06 10:32:27;;;;;;;7.93;7.13;;;;;;;20.20;59.20;102224.09;2100657;28;20127;-78
2021/06/06 10:33:35;;;;;;;7.10;6.35;;;;;;;20.32;60.67;102225.97;2117568;27;20061;-78
2021/06/06 10:34:39;;;;;;;7.65;6.72;;;;;;;20.47;58.53;102220.66;2130027;27;20051;-77
2021/06/06 10:35:39;;;;;;;7.95;7.15;;;;;;;20.22;59.24;102230.13;2114263;28;20107;-80
2021/06/06 10:36:40;;;;;;;8.40;6.70;;;;;;;20.24;63.16;102225.59;2110955;28;20015;-81
2021/06/06 10:37:41;;;;;;;9.35;7.03;;;;;;;20.34;58.65;102223.22;2113618;28;20346;-80
2021/06/06 10:38:41;;;;;;;7.90;7.13;;;;;;;20.25;58.36;102224.63;2105070;28;20108;-79
2021/06/06 10:39:43;;;;;;;9.27;6.70;;;;;;;20.27;58.69;102228.06;2110675;28;20092;-78
2021/06/06 10:40:46;;;;;;;9.35;7.75;;;;;;;20.25;58.75;102222.00;2113883;28;20019;-78
2021/06/06 10:42:09;;;;;;;8.43;6.85;;;;;;;20.41;58.09;102219.25;2105830;28;20020;-79
2021/06/06 10:43:34;;;;;;;7.88;6.63;;;;;;;20.56;58.55;102221.88;2116158;28;20015;-80
2021/06/06 10:44:56;;;;;;;8.85;6.82;;;;;;;20.57;57.78;102218.28;2126582;27;20015;-80
2021/06/06 10:46:14;;;;;;;6.55;5.93;;;;;;;20.58;57.92;102215.53;2130469;27;20019;-77
2021/06/06 10:47:27;;;;;;;7.65;6.63;;;;;;;20.51;58.19;102219.50;2129830;27;20373;-78
2021/06/06 10:48:30;;;;;;;7.20;6.50;;;;;;;20.57;57.67;102219.09;2112720;28;20039;-80
2021/06/06 10:49:35;;;;;;;7.82;6.55;;;;;;;20.59;57.55;102217.22;2114004;27;20016;-77
2021/06/06 10:50:46;;;;;;;7.47;6.68;;;;;;;20.53;57.64;102219.41;2113651;28;20347;-75
2021/06/06 10:51:52;;;;;;;8.07;7.28;;;;;;;20.59;57.66;102219.88;2123901;27;20071;-78
2021/06/06 10:52:52;;;;;;;7.15;6.45;;;;;;;20.45;57.59;102220.75;2130383;27;20384;-77
2021/06/06 10:53:55;;;;;;;7.90;6.30;;;;;;;20.43;57.68;102216.50;2121501;28;20106;-79
2021/06/06 10:54:57;;;;;;;7.28;6.57;;;;;;;20.36;57.96;102225.78;2104626;28;20032;-77
2021/06/06 10:56:13;;;;;;;7.70;6.75;;;;;;;20.35;57.96;102224.91;2105185;28;20089;-76
2021/06/06 10:59:54;;;;;;;7.70;6.93;;;;;;;20.76;56.77;102217.94;2123885;27;20949;-79
2021/06/06 11:02:51;;;;;;;8.23;6.80;;;;;;;20.94;57.17;102220.41;1992381;27;45374;-78
2021/06/06 11:04:04;;;;;;;8.05;7.15;;;;;;;21.00;57.00;102217.31;2060725;28;20439;-77
2021/06/06 11:05:34;;;;;;;15.95;7.57;;;;;;;20.92;56.88;102212.53;2099111;28;20398;-77
2021/06/06 11:06:35;;;;;;;9.27;7.03;;;;;;;20.73;56.47;102204.03;2106313;28;20030;-76
2021/06/06 11:07:35;;;;;;;8.68;7.07;;;;;;;20.70;56.68;102205.09;2113154;28;20019;-77
2021/06/06 11:08:41;;;;;;;9.03;7.03;;;;;;;20.66;56.75;102206.25;2104669;28;20047;-77
2021/06/06 11:09:41;;;;;;;12.60;7.45;;;;;;;20.65;57.67;102208.03;2105355;28;20020;-81
2021/06/06 11:10:41;;;;;;;9.30;7.33;;;;;;;20.67;59.14;102206.09;2097227;28;20036;-78
2021/06/06 11:11:41;;;;;;;8.43;7.07;;;;;;;20.68;57.72;102206.97;2079720;28;20050;-78
2021/06/06 11:12:42;;;;;;;7.37;6.67;;;;;;;20.66;57.45;102206.25;2088171;28;20452;-78
2021/06/06 11:13:53;;;;;;;9.23;7.07;;;;;;;20.64;57.23;102193.06;2088024;28;20036;-78
2021/06/06 11:14:54;;;;;;;8.77;6.65;;;;;;;20.69;57.67;102204.22;2095610;28;20519;-82
2021/06/06 11:16:00;;;;;;;8.65;7.35;;;;;;;20.66;57.28;102200.94;2097394;28;20036;-77
2021/06/06 11:17:12;;;;;;;7.65;6.93;;;;;;;20.66;57.04;102200.94;2097152;28;20391;-82
2021/06/06 11:18:15;;;;;;;8.77;7.13;;;;;;;20.67;56.64;102195.50;2096173;28;20039;-82
2021/06/06 11:19:18;;;;;;;8.10;7.30;;;;;;;20.65;57.04;102201.84;2080688;28;20029;-83
2021/06/06 11:20:25;;;;;;;7.60;6.80;;;;;;;20.65;57.23;102196.56;2096740;28;20396;-83
2021/06/06 11:21:35;;;;;;;8.25;7.45;;;;;;;20.66;57.16;102195.63;2105166;28;20025;-84
2021/06/06 11:22:36;;;;;;;8.07;7.32;;;;;;;20.69;57.28;102195.41;2105762;28;20450;-83
2021/06/06 11:23:41;;;;;;;8.50;7.70;;;;;;;20.66;58.08;102191.16;2089571;28;20021;-81
2021/06/06 11:24:41;;;;;;;7.93;7.15;;;;;;;20.66;57.30;102192.97;2081715;28;20018;-80
2021/06/06 11:25:48;;;;;;;7.57;6.87;;;;;;;20.67;57.08;102202.63;2096441;28;20103;-81
2021/06/06 11:27:14;;;;;;;8.27;7.40;;;;;;;20.65;56.96;102199.22;2097433;28;20032;-79
2021/06/06 11:28:34;;;;;;;7.47;6.78;;;;;;;20.68;57.20;102196.38;2101604;28;20028;-80
2021/06/06 11:29:56;;;;;;;8.48;7.68;;;;;;;20.65;57.05;102193.91;2106000;28;20116;-82
2021/06/06 11:30:57;;;;;;;;;;;;;;;20.64;57.20;102198.38;2103577;28;20032;-79
2021/06/06 11:31:57;;;;;;;7.83;7.13;;;;;;;20.68;57.08;102196.38;2096168;28;19920;-80
2021/06/06 11:33:11;;;;;;;8.23;7.53;;;;;;;20.70;57.14;102192.66;2104728;28;20079;-83
2021/06/06 11:34:24;;;;;;;8.55;7.25;;;;;;;20.71;56.95;102193.53;2113157;28;20023;-78
2021/06/06 11:35:48;;;;;;;7.88;7.10;;;;;;;20.72;57.26;102195.22;2104706;28;20400;-77
2021/06/06 11:36:59;;;;;;;7.80;7.00;;;;;;;20.71;57.20;102199.66;2103274;28;20158;-76
2021/06/06 11:38:31;;;;;;;8.50;7.63;;;;;;;20.73;57.12;102196.91;2101800;28;20197;-77
2021/06/06 11:39:43;;;;;;;7.50;6.80;;;;;;;20.77;56.87;102193.09;2108292;28;20115;-78
2021/06/06 11:40:47;;;;;;;9.18;7.13;;;;;;;20.79;57.80;102196.53;2121115;28;20406;-80
2021/06/06 11:41:48;;;;;;;9.10;7.57;;;;;;;20.84;57.14;102199.72;2121527;28;20107;-78
2021/06/06 11:42:48;;;;;;;9.23;8.33;;;;;;;20.81;57.34;102193.78;2111938;28;20027;-78
2021/06/06 11:44:13;;;;;;;9.10;7.93;;;;;;;20.83;57.29;102192.72;2104167;28;20028;-83
2021/06/06 11:45:18;;;;;;;8.70;6.90;;;;;;;20.87;57.56;102188.06;2107668;28;20028;-81
2021/06/06 11:46:32;;;;;;;9.35;8.43;;;;;;;20.88;57.11;102188.91;2104735;28;20059;-80
2021/06/06 11:47:54;;;;;;;8.80;8.00;;;;;;;20.80;56.77;102192.91;2112642;28;20502;-78
2021/06/06 11:49:23;;;;;;;9.10;8.20;;;;;;;20.74;57.01;102198.63;2077885;28;20064;-77
2021/06/06 11:50:40;;;;;;;9.70;8.70;;;;;;;20.69;57.00;102190.97;2102450;28;20042;-79
2021/06/06 11:51:42;;;;;;;8.85;7.95;;;;;;;20.72;57.10;102189.91;2103449;28;20028;-78
2021/06/06 11:52:46;;;;;;;10.55;9.55;;;;;;;20.72;57.06;102189.91;2106382;28;20398;-76
2021/06/06 11:53:46;;;;;;;9.63;8.60;;;;;;;20.74;57.17;102193.34;2097948;28;20024;-80
2021/06/06 11:54:52;;;;;;;9.37;8.57;;;;;;;20.73;57.39;102191.59;2112664;28;20131;-80
2021/06/06 11:55:55;;;;;;;9.85;8.95;;;;;;;20.70;57.52;102186.53;2112140;28;20165;-78
2021/06/06 11:56:56;;;;;;;10.68;9.45;;;;;;;20.70;57.21;102191.81;2096075;28;20039;-79
2021/06/06 11:58:04;;;;;;;9.85;8.63;;;;;;;20.71;57.33;102190.88;2087797;28;20079;-80
2021/06/06 11:59:22;;;;;;;10.13;9.05;;;;;;;20.72;58.05;102195.22;2095734;28;20120;-78
2021/06/06 12:00:22;;;;;;;9.90;8.93;;;;;;;20.71;57.25;102193.53;2103791;28;20045;-78
2021/06/06 12:01:23;;;;;;;10.77;9.67;;;;;;;20.73;57.95;102193.44;2111475;28;20081;-78
2021/06/06 12:02:28;;;;;;;9.80;8.90;;;;;;;20.70;57.43;102189.19;2104056;28;20176;-75
2021/06/06 12:03:31;;;;;;;11.88;10.70;;;;;;;20.68;57.09;102183.09;2096676;28;20021;-78
2021/06/06 12:04:32;;;;;;;11.68;10.48;;;;;;;20.67;57.33;102190.19;2104187;28;20047;-79
2021/06/06 12:05:33;;;;;;;10.90;9.82;;;;;;;20.65;57.21;102189.47;2102805;28;20028;-81
2021/06/06 12:06:43;;;;;;;11.25;10.15;;;;;;;20.70;58.14;102186.53;2079783;28;20021;-80
2021/06/06 12:07:50;;;;;;;11.75;10.65;;;;;;;20.74;59.26;102182.72;2082295;28;20440;-80
2021/06/06 12:08:52;;;;;;;11.25;10.15;;;;;;;20.75;56.69;102181.75;2095450;28;20052;-77
2021/06/06 12:09:52;;;;;;;11.30;9.40;;;;;;;20.78;56.72;102184.22;2088360;28;20052;-79
2021/06/06 12:10:54;;;;;;;11.23;9.98;;;;;;;20.77;56.71;102185.16;2088191;28;20507;-79
2021/06/06 12:12:14;;;;;;;12.02;10.80;;;;;;;20.74;56.97;102179.19;2104126;28;20028;-79
2021/06/06 12:13:19;;;;;;;11.30;10.10;;;;;;;20.71;57.78;102182.91;2102001;28;20039;-82
2021/06/06 12:14:29;;;;;;;11.55;10.55;;;;;;;20.72;56.79;102184.59;2096360;28;20025;-77
2021/06/06 12:15:32;;;;;;;12.32;11.02;;;;;;;20.66;57.16;102185.84;2098778;28;20017;-77
2021/06/06 12:16:33;;;;;;;12.13;10.35;;;;;;;20.66;57.07;102185.03;2090245;28;20027;-75
2021/06/06 12:17:33;;;;;;;12.13;11.00;;;;;;;20.68;56.62;102183.09;2090785;28;20044;-75
2021/06/06 12:18:34;;;;;;;10.75;9.75;;;;;;;20.67;56.78;102186.72;2099299;28;20031;-79
2021/06/06 12:19:39;;;;;;;11.75;10.65;;;;;;;20.68;56.56;102188.41;2099332;28;20055;-77
2021/06/06 12:20:55;;;;;;;11.52;10.52;;;;;;;20.66;56.36;102185.03;2090207;28;20036;-77
2021/06/06 12:22:07;;;;;;;11.23;10.15;;;;;;;20.62;56.63;102186.13;2092594;28;20064;-77
2021/06/06 12:23:09;;;;;;;10.85;9.82;;;;;;;20.64;56.27;102186.91;2082035;28;20096;-77
2021/06/06 12:24:21;;;;;;;10.05;9.13;;;;;;;20.70;56.35;102191.81;2085136;28;20028;-77
2021/06/06 12:25:27;;;;;;;11.05;9.82;;;;;;;20.67;56.32;102192.03;2107100;28;20089;-78
2021/06/06 12:26:29;;;;;;;11.27;10.07;;;;;;;20.70;60.14;102184.69;2107208;28;20020;-79
2021/06/06 12:27:30;;;;;;;11.90;10.38;;;;;;;20.77;58.35;102187.81;2094428;28;20017;-79
2021/06/06 12:28:30;;;;;;;11.13;10.07;;;;;;;20.76;58.50;102191.41;2076946;28;20045;-80
2021/06/06 12:29:51;;;;;;;11.90;10.70;;;;;;;;;;2090420;28;20032;-80
2021/06/06 12:31:01;;;;;;;10.80;9.50;;;;;;;20.70;56.80;102189.19;2098771;28;20036;-80
2021/06/06 12:32:22;;;;;;;11.20;10.13;;;;;;;20.74;57.14;102187.16;2098599;28;20179;-79
2021/06/06 12:33:38;;;;;;;9.57;8.65;;;;;;;20.76;56.38;102186.09;2085354;28;20143;-79
2021/06/06 12:34:44;;;;;;;10.57;9.48;;;;;;;20.77;56.15;102190.44;2086761;28;20021;-81
2021/06/06 12:35:55;;;;;;;10.38;9.38;;;;;;;20.74;55.93;102187.16;2082923;28;20067;-82
2021/06/06 12:37:00;;;;;;;10.50;9.57;;;;;;;20.74;55.76;102188.03;2070363;28;20054;-78
2021/06/06 12:38:02;;;;;;;10.63;9.50;;;;;;;20.76;55.75;102186.09;2075934;28;20097;-78
2021/06/06 12:39:03;;;;;;;10.63;9.55;;;;;;;20.84;56.83;102180.31;2086833;28;20024;-79
2021/06/06 12:40:04;;;;;;;10.38;9.38;;;;;;;20.89;55.73;102185.34;2082143;28;20025;-77
2021/06/06 12:41:06;;;;;;;10.75;9.75;;;;;;;20.88;55.68;102186.25;2074482;28;20026;-77
2021/06/06 12:42:07;;;;;;;10.23;9.23;;;;;;;20.86;56.06;102189.00;2074143;28;20040;-76
2021/06/06 12:43:07;;;;;;;10.07;9.07;;;;;;;20.88;55.85;102184.50;2082023;28;20455;-78
2021/06/06 12:44:09;;;;;;;10.10;9.13;;;;;;;20.81;55.96;102185.81;2098633;28;20336;-79
2021/06/06 12:45:10;;;;;;;9.90;8.77;;;;;;;20.76;56.28;102191.41;2090172;28;20361;-76
2021/06/06 12:46:10;;;;;;;9.77;8.88;;;;;;;20.79;56.26;102191.22;2082150;28;20040;-77
2021/06/06 12:47:24;;;;;;;9.67;8.30;;;;;;;20.80;57.36;102192.09;2090089;28;20520;-80
2021/06/06 12:48:24;;;;;;;9.05;8.23;;;;;;;20.79;57.32;102188.56;2100285;28;20065;-80
2021/06/06 12:49:52;;;;;;;9.70;8.90;;;;;;;20.80;59.67;102192.91;2106658;28;20451;-81
2021/06/06 12:50:53;;;;;;;9.35;8.40;;;;;;;20.82;57.77;102196.34;2106926;28;20063;-80
2021/06/06 12:51:53;;;;;;;10.45;9.05;;;;;;;20.83;56.64;102197.16;2106982;28;20028;-81
2021/06/06 12:52:59;;;;;;;9.03;8.17;;;;;;;20.82;55.47;102198.13;2090698;28;20025;-78
2021/06/06 12:54:19;;;;;;;9.65;8.65;;;;;;;20.84;55.54;102191.75;2083612;28;20048;-76
2021/06/06 12:55:27;;;;;;;9.73;8.73;;;;;;;20.81;55.83;102199.91;2104614;28;20084;-77
2021/06/06 12:56:28;;;;;;;9.20;8.40;;;;;;;20.81;55.53;102189.31;2106941;28;20432;-77
2021/06/06 12:57:33;;;;;;;10.40;9.25;;;;;;;20.81;56.96;102196.44;2106810;28;20016;-78
2021/06/06 12:58:34;;;;;;;8.35;7.55;;;;;;;20.84;56.03;102197.06;2098968;28;20016;-79
2021/06/06 12:59:34;;;;;;;9.70;8.77;;;;;;;20.87;55.56;102197.84;2090551;28;20020;-80
2021/06/06 13:00:58;;;;;;;12.27;8.40;;;;;;;20.91;56.34;102188.75;2089448;28;20025;-84
2021/06/06 13:02:19;;;;;;;9.38;8.45;;;;;;;20.94;55.71;102189.38;2084097;28;20380;-82
2021/06/06 13:03:55;;;;;;;9.55;7.85;;;;;;;20.93;55.54;102186.84;2096657;28;20097;-80
2021/06/06 13:05:05;;;;;;;10.23;8.95;;;;;;;20.90;55.43;102195.03;2103282;28;20039;-81
2021/06/06 13:06:24;;;;;;;10.80;8.98;;;;;;;20.96;55.63;102189.28;2106544;28;20027;-82
2021/06/06 13:07:29;;;;;;;9.73;8.23;;;;;;;21.00;55.33;102188.13;2104742;28;20077;-78
2021/06/06 13:08:35;;;;;;;8.85;7.95;;;;;;;21.01;56.07;102189.84;2092460;28;20098;-79
2021/06/06 13:09:46;;;;;;;8.30;7.50;;;;;;;21.03;55.65;102187.94;2091927;28;20035;-81
2021/06/06 13:11:19;;;;;;;8.93;8.07;;;;;;;21.01;56.89;102184.53;2084188;28;20028;-84
2021/06/06 13:12:30;;;;;;;8.50;7.70;;;;;;;21.05;55.64;102191.34;2096995;28;20032;-80
2021/06/06 13:13:37;;;;;;;8.57;7.72;;;;;;;21.02;55.72;102194.22;2098076;28;20056;-80
2021/06/06 13:15:05;;;;;;;8.90;7.88;;;;;;;21.06;55.60;102193.06;2092098;28;20467;-73
2021/06/06 13:16:13;;;;;;;7.97;7.25;;;;;;;21.04;55.54;102189.63;2093794;28;20016;-76
2021/06/06 13:17:23;;;;;;;8.27;7.53;;;;;;;21.04;55.30;102186.97;2090670;28;20037;-75
2021/06/06 13:18:25;;;;;;;9.35;7.95;;;;;;;21.00;55.56;102182.81;2082983;28;20044;-75
2021/06/06 13:19:27;;;;;;;8.55;7.72;;;;;;;20.99;55.70;102189.09;2075049;28;20037;-75
2021/06/06 13:20:34;;;;;;;7.72;6.97;;;;;;;20.93;55.49;102182.38;2074168;28;20022;-76
2021/06/06 13:23:39;;;;;;;8.82;7.93;;;;;;;20.93;55.49;102189.50;2141137;27;48211;-77
2021/06/06 13:24:42;;;;;;;8.77;7.57;;;;;;;20.96;55.50;102191.94;2129381;27;20037;-76
2021/06/06 13:25:47;;;;;;;8.50;7.43;;;;;;;21.00;57.73;102182.00;2118917;28;20023;-79
2021/06/06 13:27:31;;;;;;;10.88;7.80;;;;;;;21.09;55.45;102187.56;2122285;27;20031;-84
2021/06/06 13:28:43;;;;;;;9.48;8.00;;;;;;;21.07;55.92;102181.47;2130671;27;20015;-82
2021/06/06 13:29:44;;;;;;;;;;;;;;;21.13;55.65;102189.97;2106968;28;20102;-78
2021/06/06 13:30:54;;;;;;;11.55;8.05;;;;;;;21.15;57.92;102182.78;2111835;27;19943;-86
2021/06/06 13:31:54;;;;;;;9.00;7.68;;;;;;;21.18;55.34;102177.28;2113356;28;20447;-82
2021/06/06 13:32:57;;;;;;;8.57;7.73;;;;;;;21.14;55.62;102175.78;2113886;27;20012;-78
2021/06/06 13:33:58;;;;;;;8.20;7.32;;;;;;;21.13;55.32;102182.88;2130712;27;20052;-80
2021/06/06 13:35:18;;;;;;;8.45;7.60;;;;;;;21.09;55.93;102176.06;2121945;28;20027;-82
2021/06/06 13:36:18;;;;;;;10.35;7.32;;;;;;;21.03;55.74;102182.63;2107147;28;20106;-71
2021/06/06 13:37:20;;;;;;;7.87;7.07;;;;;;;20.98;55.48;102174.13;2121596;28;20369;-73
2021/06/06 13:38:20;;;;;;;;;;;;;;;20.99;55.79;102183.78;2113285;28;20023;-73
2021/06/06 13:39:26;;;;;;;8.40;7.60;;;;;;;20.98;55.69;102179.44;2106024;28;19923;-71
2021/06/06 13:40:29;;;;;;;7.93;7.03;;;;;;;20.93;56.04;102173.56;2113642;28;20218;-73
2021/06/06 13:41:31;;;;;;;8.05;7.25;;;;;;;20.91;57.18;102173.66;2105688;28;20028;-82
2021/06/06 13:42:33;;;;;;;7.80;7.00;;;;;;;20.99;58.12;102178.47;2119883;27;20346;-78
2021/06/06 13:43:36;;;;;;;8.75;7.05;;;;;;;21.09;56.66;102176.94;2122108;28;20047;-79
2021/06/06 13:44:37;;;;;;;9.00;7.22;;;;;;;21.12;55.98;102180.31;2097235;28;20015;-78
2021/06/06 13:45:37;;;;;;;8.80;7.70;;;;;;;21.08;56.10;102182.34;2114145;27;20027;-78
2021/06/06 13:46:38;;;;;;;7.47;6.77;;;;;;;21.06;55.86;102182.44;2129667;27;20038;-78
2021/06/06 13:47:38;;;;;;;8.55;7.72;;;;;;;21.02;55.71;102180.94;2113282;28;20016;-75
2021/06/06 13:48:38;;;;;;;8.00;7.20;;;;;;;20.97;56.03;102175.94;2113386;28;20019;-78
2021/06/06 13:49:38;;;;;;;9.63;7.17;;;;;;;20.93;55.96;102176.22;2113708;28;20027;-78
2021/06/06 13:50:41;;;;;;;8.03;7.23;;;;;;;20.90;56.14;102179.09;2113504;28;20507;-78
2021/06/06 13:51:42;;;;;;;9.52;7.45;;;;;;;20.89;56.20;102177.38;2113431;28;20011;-77
2021/06/06 13:52:42;;;;;;;7.60;7.00;;;;;;;20.86;56.10;102181.06;2096810;28;20029;-78
2021/06/06 13:53:42;;;;;;;8.53;7.70;;;;;;;20.82;56.05;102174.25;2096884;28;20036;-75
2021/06/06 13:54:42;;;;;;;8.27;7.47;;;;;;;20.84;56.23;102177.66;2104856;28;20264;-76
2021/06/06 13:55:43;;;;;;;7.77;6.97;;;;;;;20.88;56.27;102183.59;2113702;28;20022;-77
2021/06/06 13:56:43;;;;;;;7.90;7.20;;;;;;;20.90;56.04;102179.09;2121239;28;20011;-75
2021/06/06 13:57:43;;;;;;;7.57;6.57;;;;;;;20.89;56.05;102180.03;2113092;28;20031;-74
2021/06/06 13:58:44;;;;;;;7.53;6.87;;;;;;;20.87;56.07;102176.63;2121399;28;20020;-76
2021/06/06 13:59:44;;;;;;;7.60;6.90;;;;;;;20.98;57.91;102184.75;2130057;27;20098;-77
2021/06/06 14:00:44;;;;;;;7.50;6.68;;;;;;;21.00;56.13;102180.19;2121964;28;20068;-78
2021/06/06 14:01:45;;;;;;;7.47;6.77;;;;;;;21.03;56.09;102182.63;2105531;28;20107;-76
2021/06/06 14:02:47;;;;;;;7.13;6.38;;;;;;;20.99;56.58;102175.84;2111479;28;20028;-76
2021/06/06 14:03:47;;;;;;;7.50;6.80;;;;;;;21.02;56.34;102185.38;2112116;28;20073;-78
2021/06/06 14:04:53;;;;;;;7.23;6.53;;;;;;;21.01;56.35;102184.53;2110529;28;20431;-80
2021/06/06 14:06:05;;;;;;;7.00;6.30;;;;;;;21.00;56.27;102182.81;2113456;28;20022;-80
2021/06/06 14:07:09;;;;;;;6.85;5.93;;;;;;;21.01;56.95;102183.69;2099869;28;20032;-78
2021/06/06 14:08:09;;;;;;;7.82;6.28;;;;;;;21.02;57.28;102185.38;2098164;28;20107;-80
2021/06/06 14:09:12;;;;;;;7.10;6.50;;;;;;;20.98;56.36;102187.41;2104793;28;20024;-78
2021/06/06 14:10:17;;;;;;;7.25;6.55;;;;;;;21.01;57.20;102184.53;2104953;28;20415;-79
2021/06/06 14:11:20;;;;;;;7.20;6.40;;;;;;;21.03;56.95;102182.63;2105793;28;20362;-79
2021/06/06 14:12:20;;;;;;;7.38;6.30;;;;;;;21.04;56.18;102173.72;2098489;28;20020;-76
2021/06/06 14:13:29;;;;;;;6.20;5.67;;;;;;;21.02;55.81;102183.59;2104531;28;20046;-78
2021/06/06 14:14:29;;;;;;;6.57;5.90;;;;;;;21.02;57.19;102186.25;2113832;28;20077;-77
2021/06/06 14:15:30;;;;;;;7.37;6.63;;;;;;;21.02;56.40;102180.94;2113901;27;20104;-79
2021/06/06 14:16:30;;;;;;;6.77;6.00;;;;;;;21.00;55.74;102177.53;2121141;28;20538;-80
2021/06/06 14:17:30;;;;;;;6.17;5.50;;;;;;;21.01;56.03;102176.56;2121869;28;20399;-81
2021/06/06 14:18:31;;;;;;;6.17;5.63;;;;;;;21.00;57.63;102177.53;2104603;28;20017;-79
2021/06/06 14:19:33;;;;;;;6.60;5.60;;;;;;;21.00;56.06;102182.81;2113081;28;20042;-81
2021/06/06 14:20:33;;;;;;;6.25;5.65;;;;;;;21.02;57.62;102172.97;2122026;27;20134;-77
2021/06/06 14:21:34;;;;;;;6.18;5.57;;;;;;;21.06;56.81;102181.56;2129792;27;20007;-78
2021/06/06 14:22:34;;;;;;;6.47;5.15;;;;;;;21.06;55.84;102171.81;2121205;28;20590;-79
2021/06/06 14:23:40;;;;;;;5.93;5.40;;;;;;;21.06;54.68;102177.13;2120768;28;20036;-81
2021/06/06 14:24:41;;;;;;;5.43;4.93;;;;;;;21.14;56.95;102170.47;2113858;28;20099;-81
2021/06/06 14:25:42;;;;;;;5.35;4.85;;;;;;;21.12;55.03;102175.00;2097066;28;20041;-77
2021/06/06 14:26:46;;;;;;;4.93;4.53;;;;;;;21.13;55.57;102166.94;2104523;28;20020;-79
2021/06/06 14:27:46;;;;;;;5.35;4.63;;;;;;;21.15;55.13;102170.38;2112908;28;20092;-78
2021/06/06 14:28:47;;;;;;;10.57;5.07;;;;;;;21.22;56.87;102168.16;2110744;28;20167;-81
2021/06/06 14:30:04;;;;;;;6.20;4.30;;;;;;;21.34;54.71;102164.66;2104191;28;20052;-84
2021/06/06 14:31:04;;;;;;;4.88;4.35;;;;;;;21.44;55.03;102169.34;2094743;28;20025;-77
2021/06/06 14:32:05;;;;;;;4.87;4.37;;;;;;;21.47;54.25;102169.13;2115108;27;20079;-79
2021/06/06 14:33:07;;;;;;;5.07;3.90;;;;;;;21.43;54.77;102168.50;2112303;28;20126;-80
2021/06/06 14:34:07;;;;;;;4.65;4.25;;;;;;;21.35;54.11;102166.34;2096033;28;20035;-76
2021/06/06 14:35:07;;;;;;;4.70;4.30;;;;;;;21.34;54.45;102161.13;2090540;28;20025;-74
2021/06/06 14:36:08;;;;;;;4.63;3.95;;;;;;;21.34;54.40;102159.34;2107274;28;20703;-73
2021/06/06 14:37:08;;;;;;;4.82;3.60;;;;;;;21.31;54.28;102164.84;2115282;28;20034;-74
2021/06/06 14:38:11;;;;;;;3.90;3.50;;;;;;;21.29;54.33;102161.47;2115626;28;20446;-74
2021/06/06 14:39:12;;;;;;;5.30;4.15;;;;;;;21.29;54.37;102155.31;2106784;28;20024;-74
2021/06/06 14:40:14;;;;;;;4.00;3.60;;;;;;;21.30;54.65;102152.53;2107545;27;20020;-77
2021/06/06 14:41:15;;;;;;;3.67;3.22;;;;;;;21.32;54.68;102155.09;2107728;28;20436;-76
2021/06/06 14:42:15;;;;;;;8.13;3.78;;;;;;;21.33;54.26;102157.66;2107385;28;20050;-77
2021/06/06 14:43:18;;;;;;;4.55;3.67;;;;;;;21.29;54.06;102156.16;2121298;27;20107;-77
2021/06/06 14:44:19;;;;;;;6.53;3.53;;;;;;;21.29;53.97;102161.47;2115981;28;20095;-77
2021/06/06 14:45:21;;;;;;;5.15;3.45;;;;;;;21.27;54.41;102154.53;2099300;28;20416;-81
2021/06/06 14:46:22;;;;;;;6.32;3.72;;;;;;;21.25;54.69;102167.94;2099075;28;20168;-82
2021/06/06 14:47:22;;;;;;;4.00;3.28;;;;;;;21.25;54.69;102157.31;2104685;28;20466;-80
2021/06/06 14:48:25;;;;;;;3.97;3.17;;;;;;;21.24;54.89;102158.25;2104489;28;20109;-82
2021/06/06 14:49:25;;;;;;;6.43;3.72;;;;;;;21.23;55.17;102161.88;2099298;28;20090;-76
2021/06/06 14:50:25;;;;;;;5.07;3.33;;;;;;;21.22;54.81;102160.19;2113250;28;20426;-79
2021/06/06 14:51:25;;;;;;;4.57;3.23;;;;;;;21.22;54.72;102157.53;2115333;28;20015;-76
2021/06/06 14:52:25;;;;;;;5.53;3.23;;;;;;;21.25;54.82;102157.31;2107088;28;20016;-76
2021/06/06 14:53:27;;;;;;;3.90;3.23;;;;;;;21.25;54.95;102159.97;2123568;27;20063;-76
2021/06/06 14:54:27;;;;;;;6.43;3.28;;;;;;;21.23;54.81;102156.56;2115335;28;20073;-77
2021/06/06 14:55:29;;;;;;;4.47;2.63;;;;;;;21.29;54.73;102156.16;2112950;28;20020;-77
2021/06/06 14:56:29;;;;;;;3.00;2.70;;;;;;;21.29;54.44;102156.16;2115561;28;20007;-77
2021/06/06 14:57:29;;;;;;;4.35;2.88;;;;;;;21.30;54.55;102155.19;2106803;28;20020;-78
2021/06/06 14:58:32;;;;;;;4.53;3.20;;;;;;;21.31;54.44;102151.59;2115470;28;20076;-77
2021/06/06 14:59:33;;;;;;;4.50;2.70;;;;;;;21.33;54.44;102152.34;2107093;28;20035;-77
2021/06/06 15:00:37;;;;;;;;;;;;;;;21.35;54.40;102152.25;2107763;28;20119;-77
2021/06/06 15:01:37;;;;;;;4.55;3.05;;;;;;;21.35;54.48;102145.09;2115927;27;19964;-76
2021/06/06 15:02:37;;;;;;;4.67;2.53;;;;;;;21.33;54.61;102147.03;2116950;27;20031;-77
2021/06/06 15:03:38;;;;;;;3.43;2.60;;;;;;;21.32;54.65;102149.78;2120319;27;20030;-77
2021/06/06 15:04:38;;;;;;;3.03;2.53;;;;;;;21.34;54.52;102154.03;2121019;27;20027;-76
2021/06/06 15:05:39;;;;;;;2.63;2.43;;;;;;;21.33;54.41;102149.69;2123892;27;20019;-79
2021/06/06 15:06:39;;;;;;;3.50;2.50;;;;;;;21.34;54.81;102154.03;2098355;28;20024;-81
2021/06/06 15:07:39;;;;;;;3.33;2.80;;;;;;;21.34;54.39;102148.72;2106927;28;20108;-78
2021/06/06 15:08:40;;;;;;;2.80;2.50;;;;;;;21.34;54.61;102153.19;2123699;27;20019;-77
2021/06/06 15:09:40;;;;;;;2.83;2.30;;;;;;;21.34;54.40;102151.38;2124186;27;20023;-76
2021/06/06 15:10:42;;;;;;;2.50;2.10;;;;;;;21.33;54.77;102141.72;2115150;28;20024;-78
2021/06/06 15:11:42;;;;;;;2.42;2.22;;;;;;;21.28;54.61;102143.81;2107346;27;20012;-78
2021/06/06 15:12:43;;;;;;;3.40;2.40;;;;;;;21.33;54.38;102151.47;2106534;28;20020;-77
2021/06/06 15:13:45;;;;;;;3.47;2.30;;;;;;;21.32;54.62;102142.66;2106860;28;20035;-77
2021/06/06 15:14:45;;;;;;;3.50;2.58;;;;;;;21.34;54.34;102138.09;2123652;27;20110;-78
2021/06/06 15:15:46;;;;;;;5.33;2.70;;;;;;;21.36;54.37;102140.66;2115418;27;20422;-77
2021/06/06 15:16:47;;;;;;;2.95;2.03;;;;;;;21.34;54.58;102138.09;2106409;28;20431;-79
2021/06/06 15:17:49;;;;;;;2.60;2.20;;;;;;;21.35;54.58;102139.81;2106816;28;20027;-79